Time;durP1;ratioP1;P1;durP2;ratioP2;P2;SDS_P1;SDS_P2;PMS_P1;PMS_P2;Temp;Humidity;BMP_temperature;BMP_pressure;BME280_temperature;BME280_humidity;BME280_pressure;Samples;Min_cycle;Max_cycle;Signal;HPM_P1;HPM_P2
2023/05/07 00:00:03;;;;;;;3.47;2.22;;;;;;;18.67;55.69;101336.59;5031687;28;20523;-62
2023/05/07 00:02:29;;;;;;;3.75;2.15;;;;;;;18.67;55.78;101336.59;5033132;28;20041;-62
2023/05/07 00:04:55;;;;;;;4.70;2.72;;;;;;;18.65;54.91;101338.63;5032979;28;20029;-63
2023/05/07 00:07:20;;;;;;;4.82;2.25;;;;;;;18.59;55.39;101339.31;5031820;28;20053;-62
2023/05/07 00:09:46;;;;;;;4.30;2.20;;;;;;;18.55;55.44;101343.38;5032298;28;20025;-63
2023/05/07 00:12:11;;;;;;;2.75;2.20;;;;;;;18.53;54.77;101348.13;5015684;28;20103;-61
2023/05/07 00:14:36;;;;;;;4.03;2.13;;;;;;;18.52;54.93;101349.13;5031867;28;20048;-61
2023/05/07 00:17:02;;;;;;;2.80;2.30;;;;;;;18.49;55.34;101334.03;5031780;28;20511;-61
2023/05/07 00:19:27;;;;;;;2.53;2.30;;;;;;;18.50;55.26;101341.19;5031716;28;20042;-62
2023/05/07 00:21:53;;;;;;;3.08;2.15;;;;;;;18.52;55.79;101344.56;5034580;28;20037;-61
2023/05/07 00:24:19;;;;;;;4.65;2.70;;;;;;;18.54;55.25;101338.94;5016103;28;20021;-61
2023/05/07 00:26:44;;;;;;;5.03;2.55;;;;;;;18.54;55.76;101342.53;5032662;28;20401;-61
2023/05/07 00:29:10;;;;;;;4.18;2.50;;;;;;;18.57;56.01;101342.19;5031593;28;20038;-61
2023/05/07 00:31:35;;;;;;;6.03;2.63;;;;;;;18.56;55.69;101339.66;5031322;28;20393;-62
2023/05/07 00:34:00;;;;;;;3.78;2.60;;;;;;;18.54;55.54;101336.25;5031437;28;20033;-62
2023/05/07 00:36:26;;;;;;;4.53;2.25;;;;;;;18.50;55.85;101335.75;5031821;28;20456;-61
2023/05/07 00:38:51;;;;;;;7.03;2.45;;;;;;;18.51;56.38;101336.56;5036117;28;20037;-62
2023/05/07 00:41:17;;;;;;;4.05;2.78;;;;;;;18.55;55.80;101335.22;5035356;28;20049;-63
2023/05/07 00:43:42;;;;;;;8.10;2.63;;;;;;;18.56;55.59;101335.06;5035564;28;20124;-61
2023/05/07 00:46:08;;;;;;;7.47;2.97;;;;;;;18.59;55.50;101337.44;5036707;28;20037;-64
2023/05/07 00:48:33;;;;;;;7.07;2.80;;;;;;;18.67;55.98;101331.19;5035603;28;20034;-63
2023/05/07 00:50:59;;;;;;;6.13;3.67;;;;;;;18.74;56.12;101332.19;5018598;28;20026;-63
2023/05/07 00:53:25;;;;;;;5.38;2.33;;;;;;;18.73;56.52;101322.38;5018916;28;20037;-63
2023/05/07 00:55:50;;;;;;;6.70;2.50;;;;;;;18.76;56.37;101319.28;5035229;28;20034;-63
2023/05/07 00:58:16;;;;;;;4.70;2.60;;;;;;;18.75;56.50;101323.03;5002306;28;20485;-64
2023/05/07 01:00:42;;;;;;;5.28;2.22;;;;;;;18.74;56.68;101320.47;5035607;28;20029;-62
2023/05/07 01:03:07;;;;;;;10.57;2.25;;;;;;;18.70;56.74;101309.13;5035046;28;20096;-63
2023/05/07 01:05:33;;;;;;;5.55;2.85;;;;;;;18.67;56.17;101304.03;5034918;28;20038;-63
2023/05/07 01:07:59;;;;;;;5.10;2.92;;;;;;;18.66;56.77;101313.19;5035045;28;20033;-63
2023/05/07 01:10:24;;;;;;;4.18;2.40;;;;;;;18.64;56.62;101315.22;5035559;28;20025;-63
2023/05/07 01:12:50;;;;;;;3.78;2.53;;;;;;;18.64;57.44;101314.38;5035587;28;20397;-63
2023/05/07 01:15:15;;;;;;;3.78;2.67;;;;;;;18.60;56.90;101303.00;5018503;28;20053;-63
2023/05/07 01:17:42;;;;;;;5.80;2.50;;;;;;;18.60;57.19;101308.44;5034865;28;20497;-60
2023/05/07 01:20:10;;;;;;;4.72;2.58;;;;;;;18.57;56.73;101308.78;5034687;28;20038;-61
2023/05/07 01:22:57;;;;;;;6.45;2.40;;;;;;;18.53;57.19;101304.72;5018391;28;20025;-62
2023/05/07 01:25:23;;;;;;;2.50;2.00;;;;;;;18.52;56.83;101311.16;5035823;28;20033;-61
2023/05/07 01:27:48;;;;;;;5.80;2.50;;;;;;;18.51;57.18;101298.59;5035062;28;20033;-62
2023/05/07 01:30:14;;;;;;;4.55;2.70;;;;;;;18.53;56.98;101307.44;5034502;28;20397;-62
2023/05/07 01:33:01;;;;;;;6.70;2.78;;;;;;;18.53;57.52;101308.28;5017909;28;20049;-61
2023/05/07 01:35:29;;;;;;;4.75;2.33;;;;;;;18.54;57.76;101298.25;5034571;28;20242;-62
2023/05/07 01:37:55;;;;;;;4.82;2.90;;;;;;;18.55;56.79;101291.81;5034601;28;20030;-63
2023/05/07 01:40:21;;;;;;;4.70;2.80;;;;;;;18.51;56.97;101293.16;5017816;28;20574;-62
2023/05/07 01:42:47;;;;;;;6.60;3.33;;;;;;;18.50;57.26;101292.34;5035030;28;20040;-62
2023/05/07 01:45:13;;;;;;;7.60;2.65;;;;;;;18.45;57.25;101288.41;5017987;28;20049;-62
2023/05/07 01:47:39;;;;;;;3.00;2.28;;;;;;;18.42;57.20;101291.44;5001407;28;20140;-62
2023/05/07 01:50:10;;;;;;;3.47;2.55;;;;;;;18.35;56.97;101276.84;5016530;28;20025;-62
2023/05/07 01:52:39;;;;;;;4.63;2.72;;;;;;;18.33;57.65;101284.31;5018155;28;20037;-62
2023/05/07 01:55:05;;;;;;;4.25;2.50;;;;;;;18.27;57.52;101284.97;5034173;28;20400;-63
2023/05/07 01:57:30;;;;;;;6.80;3.00;;;;;;;18.20;57.23;101289.38;5017900;28;20045;-62
2023/05/07 01:59:56;;;;;;;4.40;2.28;;;;;;;18.16;57.80;101286.16;5019214;28;20101;-62
2023/05/07 02:02:21;;;;;;;4.55;2.45;;;;;;;18.14;58.07;101279.22;5035289;28;20039;-62
2023/05/07 02:04:47;;;;;;;8.77;3.10;;;;;;;18.11;57.77;101284.97;5033932;28;20036;-62
2023/05/07 02:07:12;;;;;;;7.90;3.17;;;;;;;18.07;58.08;101284.44;5017390;28;20038;-62
2023/05/07 02:09:37;;;;;;;5.60;3.65;;;;;;;18.04;58.30;101285.63;5035237;28;20021;-62
2023/05/07 02:12:03;;;;;;;5.10;3.00;;;;;;;18.02;58.08;101287.66;5034486;28;20113;-62
2023/05/07 02:14:28;;;;;;;3.90;2.78;;;;;;;18.04;58.57;101285.63;5036370;28;20060;-62
2023/05/07 02:16:54;;;;;;;7.20;3.40;;;;;;;18.06;57.89;101292.75;5034333;28;20493;-63
2023/05/07 02:19:20;;;;;;;6.22;3.92;;;;;;;18.09;57.62;101298.66;5033399;28;20060;-63
2023/05/07 02:21:46;;;;;;;4.35;3.35;;;;;;;18.08;57.90;101290.72;5035536;28;20025;-62
2023/05/07 02:24:12;;;;;;;4.45;3.53;;;;;;;18.07;58.37;101294.44;5033692;28;20068;-62
2023/05/07 02:26:37;;;;;;;7.30;3.35;;;;;;;18.13;57.38;101299.19;5034836;28;20116;-62
2023/05/07 02:29:03;;;;;;;5.10;3.20;;;;;;;18.16;57.67;101304.28;5033440;28;20030;-62
2023/05/07 02:31:28;;;;;;;7.80;3.85;;;;;;;18.19;57.56;101303.97;5034690;28;20033;-62
2023/05/07 02:33:54;;;;;;;5.43;3.35;;;;;;;18.19;57.51;101306.66;5033976;28;20033;-62
2023/05/07 02:36:19;;;;;;;4.57;3.63;;;;;;;18.19;57.41;101306.66;5017363;28;20022;-62
2023/05/07 02:38:45;;;;;;;5.20;3.63;;;;;;;18.16;57.34;101310.56;5033419;28;20034;-62
2023/05/07 02:41:10;;;;;;;6.10;2.88;;;;;;;18.15;57.56;101319.69;5034540;28;20034;-63
2023/05/07 02:43:36;;;;;;;5.10;2.53;;;;;;;18.14;57.36;101311.75;5034612;28;20432;-62
2023/05/07 02:46:06;;;;;;;4.85;3.40;;;;;;;18.16;57.06;101309.72;5034440;28;20029;-62
2023/05/07 02:48:32;;;;;;;8.38;2.85;;;;;;;18.14;57.38;101306.31;5018340;28;20477;-62
2023/05/07 02:50:58;;;;;;;5.95;3.00;;;;;;;18.11;57.33;101301.22;5034573;28;20036;-62
2023/05/07 02:53:25;;;;;;;6.43;3.22;;;;;;;18.10;57.44;101308.50;5032770;28;20121;-63
2023/05/07 02:55:52;;;;;;;11.40;2.80;;;;;;;18.11;57.90;101307.50;5033254;28;20026;-63
2023/05/07 02:58:18;;;;;;;3.70;2.80;;;;;;;18.13;57.62;101304.63;5034523;28;20030;-63
2023/05/07 03:00:43;;;;;;;3.92;3.10;;;;;;;18.14;57.91;101307.19;5033356;28;20097;-62
2023/05/07 03:03:08;;;;;;;4.30;2.90;;;;;;;18.14;57.57;101303.63;5032862;28;20040;-62
2023/05/07 03:05:34;;;;;;;4.35;3.15;;;;;;;18.14;57.08;101301.75;5033159;28;20163;-62
2023/05/07 03:07:59;;;;;;;3.97;3.00;;;;;;;18.13;57.31;101304.63;5032718;28;20117;-63
2023/05/07 03:10:24;;;;;;;4.30;3.25;;;;;;;18.12;57.71;101305.66;5032655;28;20040;-62
2023/05/07 03:12:50;;;;;;;4.38;3.00;;;;;;;18.08;57.76;101302.41;5032961;28;20477;-63
2023/05/07 03:15:15;;;;;;;7.35;3.03;;;;;;;18.04;58.33;101296.47;5033872;28;20082;-62
2023/05/07 03:17:41;;;;;;;5.07;2.97;;;;;;;18.01;57.30;101293.22;5032476;28;20087;-63
2023/05/07 03:20:07;;;;;;;5.18;3.10;;;;;;;17.95;58.13;101285.78;5033982;28;20037;-63
2023/05/07 03:22:32;;;;;;;5.38;3.13;;;;;;;17.91;58.46;101285.25;5032506;28;20028;-62
2023/05/07 03:24:58;;;;;;;7.55;3.88;;;;;;;17.91;58.78;101276.28;5033669;28;20104;-63
2023/05/07 03:27:23;;;;;;;5.18;2.85;;;;;;;17.94;58.57;101282.22;5034227;28;20388;-62
2023/05/07 03:29:49;;;;;;;4.63;2.60;;;;;;;17.95;58.51;101283.91;5032278;28;20576;-62
2023/05/07 03:32:14;;;;;;;5.47;3.35;;;;;;;17.98;58.14;101286.28;5032311;28;20037;-62
2023/05/07 03:34:39;;;;;;;5.55;3.20;;;;;;;17.99;57.81;101288.00;5032300;28;20036;-62
2023/05/07 03:37:05;;;;;;;6.55;3.33;;;;;;;18.03;57.50;101283.09;5035481;28;20547;-63
2023/05/07 03:39:31;;;;;;;3.97;2.78;;;;;;;18.04;58.27;101279.34;5033448;28;20029;-62
2023/05/07 03:41:58;;;;;;;6.45;3.20;;;;;;;18.06;57.99;101284.63;5032264;28;20040;-62
2023/05/07 03:44:23;;;;;;;4.40;2.80;;;;;;;18.01;57.91;101283.25;5033786;28;20030;-63
2023/05/07 03:46:48;;;;;;;4.60;2.90;;;;;;;18.03;58.24;101294.75;5033474;28;20078;-62
2023/05/07 03:49:14;;;;;;;7.05;4.07;;;;;;;18.04;57.80;101296.47;5033351;28;20421;-62
2023/05/07 03:51:39;;;;;;;4.72;3.55;;;;;;;18.03;57.56;101294.75;5032615;28;20032;-62
2023/05/07 03:54:05;;;;;;;7.70;3.60;;;;;;;17.97;58.07;101298.16;5032134;28;20512;-62
2023/05/07 03:56:31;;;;;;;6.65;3.40;;;;;;;17.92;57.77;101299.66;5015763;28;20121;-63
2023/05/07 03:58:56;;;;;;;3.88;2.35;;;;;;;17.90;57.13;101299.81;5032225;28;20045;-62
2023/05/07 04:01:21;;;;;;;4.50;2.53;;;;;;;17.84;57.85;101299.63;5015851;28;20035;-62
2023/05/07 04:03:47;;;;;;;4.43;2.60;;;;;;;17.79;57.34;101301.97;5033891;28;20064;-62
2023/05/07 04:06:12;;;;;;;4.15;2.78;;;;;;;17.72;57.07;101300.94;5032012;28;20121;-62
2023/05/07 04:08:38;;;;;;;4.47;3.28;;;;;;;17.62;57.64;101289.38;5032074;28;20404;-63
2023/05/07 04:11:03;;;;;;;9.05;2.78;;;;;;;17.60;57.91;101292.25;5032144;28;20053;-62
2023/05/07 04:13:29;;;;;;;4.90;3.10;;;;;;;17.58;57.45;101297.00;5030828;28;20048;-63
2023/05/07 04:15:55;;;;;;;6.93;3.00;;;;;;;17.56;57.83;101293.59;5032097;28;20472;-62
2023/05/07 04:18:21;;;;;;;5.38;3.17;;;;;;;17.58;57.63;101304.28;5033692;28;20057;-62
2023/05/07 04:20:47;;;;;;;4.20;2.88;;;;;;;17.63;57.91;101297.34;5032871;28;20040;-62
2023/05/07 04:23:13;;;;;;;5.40;2.75;;;;;;;17.68;58.29;101304.97;5032797;28;20049;-62
2023/05/07 04:25:38;;;;;;;7.15;2.95;;;;;;;17.72;57.40;101295.53;5032285;28;20057;-62
2023/05/07 04:28:04;;;;;;;3.53;3.22;;;;;;;17.79;57.67;101296.56;5033231;28;20378;-63
2023/05/07 04:30:29;;;;;;;4.78;2.72;;;;;;;17.86;57.56;101287.63;5033374;28;20088;-62
2023/05/07 04:32:55;;;;;;;4.05;3.28;;;;;;;17.93;57.68;101293.22;5031532;28;20040;-62
2023/05/07 04:35:21;;;;;;;5.30;3.30;;;;;;;17.97;58.23;101292.75;5032673;28;20117;-63
2023/05/07 04:37:47;;;;;;;5.03;2.85;;;;;;;18.06;57.70;101299.03;5031360;28;20057;-62
2023/05/07 04:40:12;;;;;;;6.05;3.40;;;;;;;18.13;57.21;101291.06;5031182;28;20037;-62
2023/05/07 04:42:38;;;;;;;5.05;3.13;;;;;;;18.23;57.23;101289.06;5031844;28;20400;-62
2023/05/07 04:45:04;;;;;;;4.43;2.95;;;;;;;18.31;57.53;101292.63;5031479;28;20539;-63
2023/05/07 04:47:30;;;;;;;10.27;3.13;;;;;;;18.37;57.72;101291.13;5031432;28;20034;-63
2023/05/07 04:49:55;;;;;;;6.05;3.88;;;;;;;18.46;57.02;101290.06;5031268;28;20083;-62
2023/05/07 04:52:21;;;;;;;5.60;3.45;;;;;;;18.51;57.70;101291.31;5031316;28;20120;-63
2023/05/07 04:54:46;;;;;;;5.05;2.85;;;;;;;18.62;57.17;101295.53;5015167;28;20032;-61
2023/05/07 04:57:11;;;;;;;5.22;3.35;;;;;;;18.69;56.87;101302.00;5032746;28;20180;-62
2023/05/07 04:59:37;;;;;;;9.52;3.63;;;;;;;18.72;56.94;101300.81;5032703;28;20566;-62
2023/05/07 05:02:04;;;;;;;3.88;2.80;;;;;;;18.73;56.81;101303.38;5031520;28;20033;-62
2023/05/07 05:04:29;;;;;;;6.68;3.30;;;;;;;18.72;57.54;101307.09;5032681;28;20030;-62
2023/05/07 05:06:55;;;;;;;6.95;3.42;;;;;;;18.71;57.50;101309.94;5031437;28;20033;-62
2023/05/07 05:09:20;;;;;;;7.55;3.67;;;;;;;18.73;57.63;101300.66;5033678;28;20096;-62
2023/05/07 05:11:45;;;;;;;6.22;3.95;;;;;;;18.82;57.71;101307.75;5031615;28;20056;-62
2023/05/07 05:14:11;;;;;;;7.63;3.17;;;;;;;18.92;57.16;101307.59;5016959;28;20121;-63
2023/05/07 05:16:36;;;;;;;5.05;3.15;;;;;;;19.05;56.87;101307.91;5034330;28;20029;-63
2023/05/07 05:19:02;;;;;;;5.63;3.13;;;;;;;19.17;56.68;101318.25;5032591;28;20030;-63
2023/05/07 05:21:27;;;;;;;2.58;2.33;;;;;;;19.31;57.13;101323.97;5032025;28;20030;-63
2023/05/07 05:23:53;;;;;;;3.38;2.53;;;;;;;19.38;56.63;101324.97;5033186;28;20037;-63
2023/05/07 05:26:20;;;;;;;6.47;3.13;;;;;;;19.43;56.79;101311.75;5035957;28;20029;-64
2023/05/07 05:28:46;;;;;;;7.55;2.88;;;;;;;19.43;56.91;101320.72;5018317;28;20108;-63
2023/05/07 05:31:11;;;;;;;6.82;2.67;;;;;;;19.48;56.89;101325.66;5035998;28;20540;-63
2023/05/07 05:33:37;;;;;;;7.68;2.88;;;;;;;19.51;57.25;101326.16;5034965;28;20558;-63
2023/05/07 05:36:03;;;;;;;8.85;3.22;;;;;;;19.54;57.09;101336.66;5035821;28;20025;-63
2023/05/07 05:38:29;;;;;;;4.65;2.63;;;;;;;19.61;56.92;101331.38;5034684;28;20042;-63
2023/05/07 05:40:54;;;;;;;7.15;2.92;;;;;;;19.69;56.52;101340.34;5035462;28;20033;-64
2023/05/07 05:43:20;;;;;;;6.15;2.80;;;;;;;19.75;57.30;101333.38;5034243;28;20025;-63
2023/05/07 05:45:45;;;;;;;4.45;2.90;;;;;;;19.80;56.51;101338.25;5034862;28;20025;-63
2023/05/07 05:48:11;;;;;;;7.30;2.75;;;;;;;19.85;56.77;101339.44;5035458;28;20083;-63
2023/05/07 05:50:37;;;;;;;6.70;2.60;;;;;;;19.88;56.61;101344.50;5034166;28;20033;-63
2023/05/07 05:53:02;;;;;;;3.92;2.70;;;;;;;19.95;56.26;101345.53;5035699;28;20029;-63
2023/05/07 05:55:28;;;;;;;7.15;2.65;;;;;;;20.00;56.97;101345.81;5017998;28;20481;-63
2023/05/07 05:57:53;;;;;;;6.72;2.63;;;;;;;20.06;55.49;101345.13;5033548;28;20033;-64
2023/05/07 06:00:22;;;;;;;5.55;2.65;;;;;;;20.09;56.81;101344.78;5035681;28;20017;-63
2023/05/07 06:02:47;;;;;;;4.53;2.40;;;;;;;20.17;56.28;101344.72;5034172;28;20053;-63
2023/05/07 06:05:12;;;;;;;4.45;2.85;;;;;;;20.29;56.43;101340.59;5017779;28;20049;-63
2023/05/07 06:07:38;;;;;;;6.18;2.80;;;;;;;20.42;55.51;101331.84;5033967;28;20485;-63
2023/05/07 06:10:04;;;;;;;3.95;2.47;;;;;;;20.54;55.79;101327.69;5035050;28;20032;-63
2023/05/07 06:12:29;;;;;;;4.25;2.70;;;;;;;20.63;55.93;101329.28;5035556;28;20028;-63
2023/05/07 06:14:55;;;;;;;5.30;2.65;;;;;;;20.71;55.87;101336.56;5034734;28;20454;-63
2023/05/07 06:17:20;;;;;;;4.18;2.50;;;;;;;20.88;55.29;101338.13;5033779;28;20033;-63
2023/05/07 06:19:46;;;;;;;3.88;2.42;;;;;;;20.99;55.32;101343.13;5033425;28;20068;-63
2023/05/07 06:22:12;;;;;;;4.03;2.28;;;;;;;21.10;55.45;101347.31;5033848;28;20393;-63
2023/05/07 06:24:37;;;;;;;3.42;1.88;;;;;;;21.21;54.48;101345.00;5035091;28;20029;-63
2023/05/07 06:27:03;;;;;;;3.72;2.40;;;;;;;21.32;54.66;101347.25;5033544;28;20044;-63
2023/05/07 06:29:30;;;;;;;6.38;2.72;;;;;;;21.39;54.91;101347.34;5033280;28;20033;-63
2023/05/07 06:31:55;;;;;;;4.13;2.78;;;;;;;21.44;54.77;101356.66;5034556;28;20026;-63
2023/05/07 06:34:20;;;;;;;4.45;2.83;;;;;;;21.47;54.72;101353.56;5034833;28;20132;-62
2023/05/07 06:36:46;;;;;;;3.92;2.22;;;;;;;21.57;54.93;101363.34;5016381;28;20478;-62
2023/05/07 06:39:11;;;;;;;4.80;2.55;;;;;;;21.71;54.77;101362.50;5033052;28;20056;-63
2023/05/07 06:41:37;;;;;;;3.08;2.10;;;;;;;21.90;54.30;101356.50;5034492;28;20052;-63
2023/05/07 06:44:03;;;;;;;2.90;2.58;;;;;;;22.12;54.22;101354.66;5000357;28;20038;-62
2023/05/07 06:46:28;;;;;;;3.17;2.08;;;;;;;22.37;54.15;101347.81;5033172;28;20030;-62
2023/05/07 06:48:54;;;;;;;2.63;2.15;;;;;;;22.58;53.66;101345.94;5016680;28;20491;-62
2023/05/07 06:51:19;;;;;;;3.67;2.17;;;;;;;22.78;52.51;101342.63;5033770;28;20117;-63
2023/05/07 06:53:45;;;;;;;6.53;2.53;;;;;;;22.97;52.30;101342.78;5000686;28;20037;-63
2023/05/07 06:56:10;;;;;;;3.28;1.80;;;;;;;23.16;52.92;101349.47;5033157;28;20032;-63
2023/05/07 06:58:37;;;;;;;2.83;1.70;;;;;;;23.34;52.00;101347.06;5016406;28;20112;-63
2023/05/07 07:01:02;;;;;;;2.90;1.80;;;;;;;23.54;51.65;101349.94;5016306;28;20032;-63
2023/05/07 07:03:28;;;;;;;6.05;2.03;;;;;;;23.77;51.37;101358.72;5033071;28;20428;-63
2023/05/07 07:05:54;;;;;;;6.18;2.47;;;;;;;23.94;51.23;101353.75;5016207;28;20036;-63
2023/05/07 07:08:21;;;;;;;3.47;1.90;;;;;;;24.20;50.97;101351.16;5032662;28;20155;-63
2023/05/07 07:10:46;;;;;;;6.30;2.03;;;;;;;24.53;50.44;101363.06;5032621;28;20022;-63
2023/05/07 07:13:12;;;;;;;4.03;2.05;;;;;;;24.72;49.71;101359.50;5015872;28;20425;-64
2023/05/07 07:15:37;;;;;;;9.43;2.03;;;;;;;24.85;50.24;101365.03;5016347;28;20060;-63
2023/05/07 07:18:03;;;;;;;3.20;1.70;;;;;;;24.93;49.91;101360.41;5033911;28;20042;-62
2023/05/07 07:20:30;;;;;;;4.45;1.95;;;;;;;25.03;49.83;101360.84;5034611;28;20065;-63
2023/05/07 07:22:56;;;;;;;4.00;1.88;;;;;;;25.20;49.31;101367.59;5014908;28;20033;-63
2023/05/07 07:25:22;;;;;;;5.82;2.30;;;;;;;25.29;49.42;101364.41;5000928;28;20038;-63
2023/05/07 07:27:47;;;;;;;3.45;2.28;;;;;;;25.37;49.57;101363.34;5000651;28;20488;-63
2023/05/07 07:30:13;;;;;;;3.22;1.95;;;;;;;25.46;49.43;101367.56;5032377;28;20041;-63
2023/05/07 07:32:38;;;;;;;3.72;1.75;;;;;;;25.59;49.20;101362.09;5015607;28;20451;-63
2023/05/07 07:35:04;;;;;;;2.00;1.80;;;;;;;25.67;48.78;101359.09;5031921;28;20034;-63
2023/05/07 07:37:30;;;;;;;4.07;1.83;;;;;;;25.83;48.74;101358.63;5031793;28;20036;-63
2023/05/07 07:39:55;;;;;;;4.43;1.90;;;;;;;26.00;48.64;101354.34;5015219;28;20026;-63
2023/05/07 07:42:20;;;;;;;4.03;2.10;;;;;;;26.26;48.11;101355.31;5033758;28;20025;-63
2023/05/07 07:44:46;;;;;;;7.25;2.10;;;;;;;26.47;47.50;101354.97;5015349;28;20132;-63
2023/05/07 07:47:11;;;;;;;2.42;2.13;;;;;;;26.72;47.28;101347.63;5031445;28;20397;-63
2023/05/07 07:49:37;;;;;;;6.45;2.05;;;;;;;27.05;47.21;101352.94;5033314;28;20508;-63
2023/05/07 07:52:02;;;;;;;7.55;1.77;;;;;;;27.54;45.67;101346.56;5033192;28;20047;-64
2023/05/07 07:54:29;;;;;;;5.65;1.58;;;;;;;28.05;45.05;101355.34;5033811;28;20025;-64
2023/05/07 07:56:54;;;;;;;2.10;1.40;;;;;;;28.39;45.21;101350.22;5032964;28;20131;-64
2023/05/07 07:59:20;;;;;;;4.43;1.55;;;;;;;28.89;43.77;101351.59;4998746;28;20497;-64
2023/05/07 08:01:45;;;;;;;4.18;1.45;;;;;;;29.41;43.65;101361.78;5031793;28;20088;-64
2023/05/07 08:04:11;;;;;;;3.78;1.67;;;;;;;29.90;42.88;101362.38;4998945;28;20473;-64
2023/05/07 08:06:36;;;;;;;5.32;1.50;;;;;;;30.22;42.42;101354.44;5032007;28;20037;-64
2023/05/07 08:09:02;;;;;;;2.60;1.48;;;;;;;30.41;41.90;101356.81;5033050;28;20040;-64
2023/05/07 08:11:28;;;;;;;1.55;1.30;;;;;;;30.86;41.27;101358.72;5032933;28;20512;-63
2023/05/07 08:13:54;;;;;;;3.35;1.55;;;;;;;31.18;40.85;101350.75;5031423;28;20136;-64
2023/05/07 08:16:19;;;;;;;3.42;1.38;;;;;;;31.73;39.58;101356.31;5015023;28;20110;-64
2023/05/07 08:18:45;;;;;;;3.42;1.23;;;;;;;32.12;39.46;101357.97;5032113;28;20040;-64
2023/05/07 08:21:10;;;;;;;5.78;0.93;;;;;;;32.04;39.38;101350.94;5031423;28;20049;-64
2023/05/07 08:23:36;;;;;;;2.20;1.58;;;;;;;31.95;39.68;101351.59;5014964;28;20033;-64
2023/05/07 08:26:01;;;;;;;1.08;1.00;;;;;;;32.02;39.69;101352.31;5031241;28;20037;-64
2023/05/07 08:28:27;;;;;;;5.43;1.92;;;;;;;32.07;39.11;101355.13;5031473;28;20038;-63
2023/05/07 08:30:53;;;;;;;1.73;1.50;;;;;;;31.91;38.91;101344.91;5032004;28;20060;-63
2023/05/07 08:33:18;;;;;;;3.35;1.40;;;;;;;31.91;39.75;101356.00;5031822;28;20515;-65
2023/05/07 08:35:44;;;;;;;1.48;1.27;;;;;;;31.92;38.96;101352.13;5032730;28;20124;-64
2023/05/07 08:38:09;;;;;;;3.75;1.65;;;;;;;31.87;38.62;101352.06;5031251;28;20455;-63
2023/05/07 08:40:38;;;;;;;4.35;1.52;;;;;;;31.91;38.97;101351.28;5032631;28;20132;-63
2023/05/07 08:43:05;;;;;;;1.92;1.27;;;;;;;32.03;37.96;101360.34;5014943;28;20091;-64
2023/05/07 08:45:32;;;;;;;3.28;1.25;;;;;;;31.99;38.02;101352.78;5031724;28;20429;-63
2023/05/07 08:48:00;;;;;;;2.85;1.67;;;;;;;31.87;37.53;101355.69;5031288;28;20038;-63
2023/05/07 08:50:25;;;;;;;2.28;1.20;;;;;;;31.85;37.90;101357.03;5015008;28;20061;-63
2023/05/07 08:52:50;;;;;;;0.95;0.90;;;;;;;31.80;38.41;101356.97;5031298;28;20052;-64
2023/05/07 08:55:16;;;;;;;2.83;1.48;;;;;;;31.74;38.57;101367.16;5014675;28;20032;-63
2023/05/07 08:57:41;;;;;;;2.33;1.20;;;;;;;31.75;38.02;101362.41;5031634;28;20021;-64
2023/05/07 09:00:07;;;;;;;1.17;0.93;;;;;;;31.79;37.73;101360.81;5018460;28;20038;-63
2023/05/07 09:02:36;;;;;;;2.53;1.25;;;;;;;31.97;36.85;101360.50;5036339;28;20505;-64
2023/05/07 09:05:01;;;;;;;3.60;1.35;;;;;;;31.98;36.98;101356.63;5035052;28;20049;-64
2023/05/07 09:07:27;;;;;;;2.28;1.10;;;;;;;31.94;37.74;101369.38;5036313;28;20500;-64
2023/05/07 09:09:54;;;;;;;3.53;1.13;;;;;;;31.83;37.27;101367.53;5035430;28;20029;-64
2023/05/07 09:12:21;;;;;;;4.32;1.10;;;;;;;31.84;37.88;101377.50;5035033;28;20734;-64
2023/05/07 09:14:46;;;;;;;4.97;1.63;;;;;;;31.81;37.12;101372.47;5018081;28;20038;-64
2023/05/07 09:17:12;;;;;;;2.00;1.17;;;;;;;31.67;37.77;101372.88;5001973;28;20079;-64
2023/05/07 09:19:38;;;;;;;3.75;1.30;;;;;;;31.58;37.89;101376.31;5034569;28;20431;-64
2023/05/07 09:22:06;;;;;;;2.67;1.27;;;;;;;31.54;37.00;101366.84;5034948;28;20049;-64
2023/05/07 09:24:34;;;;;;;5.53;1.48;;;;;;;31.56;37.89;101371.03;5035431;28;20392;-63
2023/05/07 09:27:08;;;;;;;4.15;1.50;;;;;;;31.73;37.24;101376.53;5034783;28;20030;-63
2023/05/07 09:29:35;;;;;;;3.35;1.67;;;;;;;31.84;37.46;101366.44;5034542;28;20044;-64
2023/05/07 09:32:02;;;;;;;2.05;1.17;;;;;;;32.09;37.11;101364.88;5018402;28;20037;-64
2023/05/07 09:34:29;;;;;;;6.15;1.65;;;;;;;32.49;36.27;101361.75;5034508;28;20040;-63
2023/05/07 09:36:55;;;;;;;1.27;1.08;;;;;;;33.21;34.67;101361.34;5034441;28;20028;-64
2023/05/07 09:39:20;;;;;;;1.52;1.35;;;;;;;33.92;33.84;101357.94;5035026;28;20021;-64
2023/05/07 09:41:46;;;;;;;1.60;1.25;;;;;;;33.92;35.04;101363.50;5018060;28;20485;-64
2023/05/07 09:44:13;;;;;;;1.98;1.38;;;;;;;33.56;34.61;101358.00;5017990;28;20033;-64
2023/05/07 09:46:42;;;;;;;2.13;1.30;;;;;;;33.16;35.62;101352.97;5017728;28;20044;-65
2023/05/07 09:49:13;;;;;;;3.92;1.30;;;;;;;32.94;35.08;101361.38;5017861;28;20029;-63
2023/05/07 09:51:50;;;;;;;3.27;1.60;;;;;;;32.85;36.31;101357.41;5034823;28;20458;-65
2023/05/07 09:54:17;;;;;;;5.80;1.50;;;;;;;32.95;35.91;101351.09;5034170;28;20497;-63
2023/05/07 09:56:45;;;;;;;3.15;1.50;;;;;;;33.14;34.59;101360.75;5017556;28;20083;-63
2023/05/07 09:59:14;;;;;;;2.83;1.60;;;;;;;33.07;35.20;101368.44;5034166;28;20420;-65
2023/05/07 10:01:41;;;;;;;1.90;1.23;;;;;;;33.12;35.12;101362.94;5033872;28;20033;-65
2023/05/07 10:04:10;;;;;;;1.10;1.00;;;;;;;33.33;34.50;101373.13;5033930;28;20493;-64
2023/05/07 10:06:37;;;;;;;1.27;1.17;;;;;;;33.44;34.17;101369.31;5034525;28;20454;-64
2023/05/07 10:09:03;;;;;;;4.28;1.40;;;;;;;33.55;33.63;101368.28;5035224;28;20033;-63
2023/05/07 10:11:28;;;;;;;1.40;1.23;;;;;;;33.53;33.59;101364.91;5000247;28;20497;-64
2023/05/07 10:13:54;;;;;;;4.63;1.60;;;;;;;33.39;33.64;101372.06;5017248;28;20076;-63
2023/05/07 10:16:21;;;;;;;1.45;1.20;;;;;;;33.20;34.44;101368.00;5033467;28;20477;-64
2023/05/07 10:18:48;;;;;;;3.17;1.00;;;;;;;33.02;34.78;101377.56;5034214;28;20061;-64
2023/05/07 10:21:18;;;;;;;2.45;1.00;;;;;;;32.90;35.00;101368.56;5017176;28;20033;-65
2023/05/07 10:24:00;;;;;;;4.22;1.00;;;;;;;32.82;34.60;101366.25;5017038;28;20033;-64
2023/05/07 10:26:27;;;;;;;2.67;1.38;;;;;;;32.75;34.42;101368.41;5017279;28;20462;-64
2023/05/07 10:28:59;;;;;;;2.53;1.20;;;;;;;32.93;34.41;101364.41;5033552;28;20058;-63
2023/05/07 10:32:04;;;;;;;2.05;1.20;;;;;;;33.03;34.45;101370.88;5033510;28;20108;-65
2023/05/07 10:34:35;;;;;;;1.08;1.00;;;;;;;32.96;33.94;101375.00;5034151;28;20037;-64
2023/05/07 10:37:02;;;;;;;1.02;0.85;;;;;;;32.83;34.37;101371.53;5016864;28;20107;-64
2023/05/07 10:39:27;;;;;;;3.72;1.10;;;;;;;32.78;34.41;101373.44;5033493;28;20021;-63
2023/05/07 10:41:52;;;;;;;1.17;1.08;;;;;;;32.68;34.21;101374.19;5033286;28;20041;-63
2023/05/07 10:44:28;;;;;;;6.03;1.38;;;;;;;32.58;34.98;101368.50;5033201;28;20099;-64
2023/05/07 10:47:05;;;;;;;2.63;0.85;;;;;;;32.44;34.40;101378.31;5016700;28;20116;-63
2023/05/07 10:49:30;;;;;;;3.58;1.10;;;;;;;32.36;34.62;101378.78;5032992;28;20087;-64
2023/05/07 10:52:12;;;;;;;4.45;1.08;;;;;;;32.34;34.79;101389.28;5033030;28;20436;-63
2023/05/07 10:54:38;;;;;;;1.63;0.60;;;;;;;32.19;34.56;101386.34;5033385;28;20033;-63
2023/05/07 10:57:31;;;;;;;1.90;0.90;;;;;;;31.89;35.93;101380.34;5033049;28;20114;-64
2023/05/07 10:59:57;;;;;;;1.98;0.93;;;;;;;31.67;35.58;101389.50;5034242;28;20033;-64
2023/05/07 11:02:23;;;;;;;0.85;0.73;;;;;;;31.48;36.07;101390.03;5032923;28;20044;-63
2023/05/07 11:05:22;;;;;;;2.05;0.98;;;;;;;31.23;36.01;101387.66;5032690;28;20057;-63
2023/05/07 11:08:04;;;;;;;4.53;1.25;;;;;;;31.00;35.94;101385.88;5032746;28;20103;-63
2023/05/07 11:10:48;;;;;;;1.27;1.00;;;;;;;30.74;36.59;101385.66;5032679;28;20496;-63
2023/05/07 11:13:14;;;;;;;3.75;1.52;;;;;;;30.43;36.94;101387.81;5034008;28;20048;-64
2023/05/07 11:15:47;;;;;;;2.60;1.67;;;;;;;30.16;37.26;101391.34;5032939;28;20049;-63
2023/05/07 11:18:17;;;;;;;3.05;1.20;;;;;;;29.96;37.42;101383.47;5032624;28;20045;-63
2023/05/07 11:20:56;;;;;;;1.42;1.25;;;;;;;29.77;37.93;101387.44;5032265;28;20029;-64